sensor_id;sensor_type;location;lat;lon;timestamp;P1;durP1;ratioP1;P2;durP2;ratioP2
36211;SDS011;22247;48.586;13.492;2022-10-31T00:01:51;24.95;;;5.32;;
36211;SDS011;22247;48.586;13.492;2022-10-31T00:04:17;16.05;;;5.70;;
36211;SDS011;22247;48.586;13.492;2022-10-31T00:06:43;10.52;;;4.45;;
36211;SDS011;22247;48.586;13.492;2022-10-31T00:09:09;10.13;;;4.68;;
36211;SDS011;22247;48.586;13.492;2022-10-31T00:11:38;52.75;;;7.38;;
36211;SDS011;22247;48.586;13.492;2022-10-31T00:14:06;182.88;;;15.10;;
36211;SDS011;22247;48.586;13.492;2022-10-31T00:16:34;32.53;;;7.53;;
36211;SDS011;22247;48.586;13.492;2022-10-31T00:19:04;137.10;;;11.50;;
36211;SDS011;22247;48.586;13.492;2022-10-31T00:21:34;30.10;;;6.55;;
36211;SDS011;22247;48.586;13.492;2022-10-31T00:24:00;64.90;;;7.18;;
36211;SDS011;22247;48.586;13.492;2022-10-31T00:26:29;230.68;;;11.15;;
36211;SDS011;22247;48.586;13.492;2022-10-31T00:28:56;41.33;;;6.68;;
36211;SDS011;22247;48.586;13.492;2022-10-31T00:31:22;102.75;;;9.30;;
36211;SDS011;22247;48.586;13.492;2022-10-31T00:33:48;12.77;;;5.85;;
36211;SDS011;22247;48.586;13.492;2022-10-31T00:36:17;109.95;;;7.88;;
36211;SDS011;22247;48.586;13.492;2022-10-31T00:38:46;95.70;;;9.82;;
36211;SDS011;22247;48.586;13.492;2022-10-31T00:41:16;250.88;;;13.18;;
36211;SDS011;22247;48.586;13.492;2022-10-31T00:43:42;13.55;;;6.00;;
36211;SDS011;22247;48.586;13.492;2022-10-31T00:46:09;145.38;;;12.20;;
36211;SDS011;22247;48.586;13.492;2022-10-31T00:48:35;24.75;;;7.05;;
36211;SDS011;22247;48.586;13.492;2022-10-31T00:51:04;119.88;;;8.50;;
36211;SDS011;22247;48.586;13.492;2022-10-31T00:53:32;694.65;;;40.83;;
36211;SDS011;22247;48.586;13.492;2022-10-31T00:56:00;318.17;;;15.88;;
36211;SDS011;22247;48.586;13.492;2022-10-31T00:58:28;336.83;;;17.98;;
36211;SDS011;22247;48.586;13.492;2022-10-31T01:00:56;458.60;;;27.73;;
36211;SDS011;22247;48.586;13.492;2022-10-31T01:03:26;496.65;;;25.98;;
36211;SDS011;22247;48.586;13.492;2022-10-31T01:05:55;48.60;;;7.07;;
36211;SDS011;22247;48.586;13.492;2022-10-31T01:08:22;201.38;;;13.55;;
36211;SDS011;22247;48.586;13.492;2022-10-31T01:10:57;423.10;;;26.40;;
36211;SDS011;22247;48.586;13.492;2022-10-31T01:13:45;199.52;;;12.43;;
36211;SDS011;22247;48.586;13.492;2022-10-31T01:16:15;336.75;;;14.55;;
36211;SDS011;22247;48.586;13.492;2022-10-31T01:18:42;307.92;;;15.27;;
36211;SDS011;22247;48.586;13.492;2022-10-31T01:21:11;270.63;;;14.05;;
36211;SDS011;22247;48.586;13.492;2022-10-31T01:23:40;301.55;;;15.82;;
36211;SDS011;22247;48.586;13.492;2022-10-31T01:26:11;306.17;;;18.77;;
36211;SDS011;22247;48.586;13.492;2022-10-31T01:28:38;281.30;;;15.10;;
36211;SDS011;22247;48.586;13.492;2022-10-31T01:31:10;298.75;;;16.08;;
36211;SDS011;22247;48.586;13.492;2022-10-31T01:33:36;226.00;;;11.32;;
36211;SDS011;22247;48.586;13.492;2022-10-31T01:36:17;256.10;;;11.48;;
36211;SDS011;22247;48.586;13.492;2022-10-31T01:38:47;261.30;;;14.05;;
36211;SDS011;22247;48.586;13.492;2022-10-31T01:41:22;219.05;;;11.23;;
36211;SDS011;22247;48.586;13.492;2022-10-31T01:46:19;137.70;;;11.10;;
36211;SDS011;22247;48.586;13.492;2022-10-31T01:48:48;131.68;;;8.20;;
36211;SDS011;22247;48.586;13.492;2022-10-31T01:51:14;119.28;;;8.63;;
36211;SDS011;22247;48.586;13.492;2022-10-31T01:53:44;181.05;;;17.48;;
36211;SDS011;22247;48.586;13.492;2022-10-31T01:56:10;71.50;;;6.47;;
36211;SDS011;22247;48.586;13.492;2022-10-31T01:58:38;31.25;;;5.50;;
36211;SDS011;22247;48.586;13.492;2022-10-31T02:01:05;155.60;;;10.38;;
36211;SDS011;22247;48.586;13.492;2022-10-31T02:03:31;128.73;;;9.48;;
36211;SDS011;22247;48.586;13.492;2022-10-31T02:05:57;163.75;;;12.50;;
36211;SDS011;22247;48.586;13.492;2022-10-31T02:08:29;159.63;;;10.20;;
36211;SDS011;22247;48.586;13.492;2022-10-31T02:10:57;83.57;;;8.02;;
36211;SDS011;22247;48.586;13.492;2022-10-31T02:13:26;47.55;;;5.93;;
36211;SDS011;22247;48.586;13.492;2022-10-31T02:15:57;116.53;;;8.63;;
36211;SDS011;22247;48.586;13.492;2022-10-31T02:18:24;75.53;;;6.95;;
36211;SDS011;22247;48.586;13.492;2022-10-31T02:21:07;80.85;;;7.03;;
36211;SDS011;22247;48.586;13.492;2022-10-31T02:35:34;101.10;;;7.88;;
36211;SDS011;22247;48.586;13.492;2022-10-31T02:38:21;101.07;;;7.55;;
36211;SDS011;22247;48.586;13.492;2022-10-31T02:40:53;25.67;;;5.20;;
36211;SDS011;22247;48.586;13.492;2022-10-31T02:49:08;231.63;;;14.10;;
36211;SDS011;22247;48.586;13.492;2022-10-31T02:51:58;55.78;;;7.15;;
36211;SDS011;22247;48.586;13.492;2022-10-31T02:54:27;195.73;;;14.88;;
36211;SDS011;22247;48.586;13.492;2022-10-31T02:56:55;43.28;;;5.35;;
36211;SDS011;22247;48.586;13.492;2022-10-31T02:59:27;106.53;;;6.70;;
36211;SDS011;22247;48.586;13.492;2022-10-31T03:07:19;142.75;;;10.18;;
36211;SDS011;22247;48.586;13.492;2022-10-31T03:09:54;26.05;;;3.63;;
36211;SDS011;22247;48.586;13.492;2022-10-31T03:18:04;36.75;;;3.75;;
36211;SDS011;22247;48.586;13.492;2022-10-31T03:20:41;23.17;;;3.13;;
36211;SDS011;22247;48.586;13.492;2022-10-31T03:23:12;7.60;;;3.22;;
36211;SDS011;22247;48.586;13.492;2022-10-31T03:25:41;20.08;;;3.22;;
36211;SDS011;22247;48.586;13.492;2022-10-31T03:28:11;39.22;;;4.90;;
36211;SDS011;22247;48.586;13.492;2022-10-31T03:30:38;48.30;;;3.70;;
36211;SDS011;22247;48.586;13.492;2022-10-31T03:33:07;17.70;;;2.33;;
36211;SDS011;22247;48.586;13.492;2022-10-31T03:35:42;38.20;;;3.88;;
36211;SDS011;22247;48.586;13.492;2022-10-31T03:38:14;11.65;;;2.22;;
36211;SDS011;22247;48.586;13.492;2022-10-31T03:40:40;32.10;;;3.30;;
36211;SDS011;22247;48.586;13.492;2022-10-31T03:43:10;22.40;;;2.88;;
36211;SDS011;22247;48.586;13.492;2022-10-31T03:45:49;20.05;;;3.05;;
36211;SDS011;22247;48.586;13.492;2022-10-31T03:48:16;30.77;;;2.60;;
36211;SDS011;22247;48.586;13.492;2022-10-31T03:53:44;44.55;;;4.45;;
36211;SDS011;22247;48.586;13.492;2022-10-31T04:01:25;29.55;;;2.53;;
36211;SDS011;22247;48.586;13.492;2022-10-31T04:03:54;121.15;;;5.97;;
36211;SDS011;22247;48.586;13.492;2022-10-31T04:06:21;97.63;;;4.60;;
36211;SDS011;22247;48.586;13.492;2022-10-31T04:08:51;119.63;;;7.40;;
36211;SDS011;22247;48.586;13.492;2022-10-31T04:11:25;113.20;;;5.40;;
36211;SDS011;22247;48.586;13.492;2022-10-31T04:13:57;79.63;;;3.80;;
36211;SDS011;22247;48.586;13.492;2022-10-31T04:16:25;67.13;;;3.88;;
36211;SDS011;22247;48.586;13.492;2022-10-31T04:18:52;87.57;;;6.30;;
36211;SDS011;22247;48.586;13.492;2022-10-31T04:21:25;125.45;;;6.70;;
36211;SDS011;22247;48.586;13.492;2022-10-31T04:23:53;24.45;;;2.47;;
36211;SDS011;22247;48.586;13.492;2022-10-31T04:26:21;75.78;;;4.93;;
36211;SDS011;22247;48.586;13.492;2022-10-31T04:28:47;52.70;;;3.90;;
36211;SDS011;22247;48.586;13.492;2022-10-31T04:31:13;191.23;;;9.18;;
36211;SDS011;22247;48.586;13.492;2022-10-31T04:33:39;71.43;;;6.18;;
36211;SDS011;22247;48.586;13.492;2022-10-31T04:36:06;103.65;;;6.82;;
36211;SDS011;22247;48.586;13.492;2022-10-31T04:38:32;190.30;;;11.80;;
36211;SDS011;22247;48.586;13.492;2022-10-31T04:40:58;85.40;;;5.90;;
36211;SDS011;22247;48.586;13.492;2022-10-31T04:43:26;90.50;;;5.57;;
36211;SDS011;22247;48.586;13.492;2022-10-31T04:45:52;74.25;;;4.93;;
36211;SDS011;22247;48.586;13.492;2022-10-31T04:48:18;33.95;;;2.50;;
36211;SDS011;22247;48.586;13.492;2022-10-31T04:50:46;78.97;;;4.22;;
36211;SDS011;22247;48.586;13.492;2022-10-31T04:53:12;76.30;;;3.92;;
36211;SDS011;22247;48.586;13.492;2022-10-31T04:55:38;110.82;;;6.40;;
36211;SDS011;22247;48.586;13.492;2022-10-31T04:58:04;71.63;;;5.05;;
36211;SDS011;22247;48.586;13.492;2022-10-31T05:03:06;15.98;;;1.70;;
36211;SDS011;22247;48.586;13.492;2022-10-31T05:05:34;26.42;;;2.45;;
36211;SDS011;22247;48.586;13.492;2022-10-31T05:08:00;107.43;;;5.00;;
36211;SDS011;22247;48.586;13.492;2022-10-31T05:10:27;78.78;;;3.88;;
36211;SDS011;22247;48.586;13.492;2022-10-31T05:12:58;220.25;;;11.27;;
36211;SDS011;22247;48.586;13.492;2022-10-31T05:15:25;67.53;;;3.78;;
36211;SDS011;22247;48.586;13.492;2022-10-31T05:17:54;71.82;;;4.45;;
36211;SDS011;22247;48.586;13.492;2022-10-31T05:20:24;62.80;;;3.85;;
36211;SDS011;22247;48.586;13.492;2022-10-31T05:22:56;68.30;;;3.33;;
36211;SDS011;22247;48.586;13.492;2022-10-31T05:25:27;139.32;;;8.00;;
36211;SDS011;22247;48.586;13.492;2022-10-31T05:27:55;57.33;;;3.40;;
36211;SDS011;22247;48.586;13.492;2022-10-31T05:30:22;41.35;;;1.73;;
36211;SDS011;22247;48.586;13.492;2022-10-31T05:32:50;85.90;;;5.20;;
36211;SDS011;22247;48.586;13.492;2022-10-31T05:35:23;67.88;;;2.83;;
36211;SDS011;22247;48.586;13.492;2022-10-31T05:37:56;64.10;;;4.38;;
36211;SDS011;22247;48.586;13.492;2022-10-31T05:40:25;50.58;;;3.15;;
36211;SDS011;22247;48.586;13.492;2022-10-31T05:42:56;62.88;;;4.97;;
36211;SDS011;22247;48.586;13.492;2022-10-31T05:45:25;109.77;;;6.40;;
36211;SDS011;22247;48.586;13.492;2022-10-31T05:47:54;43.38;;;2.00;;
36211;SDS011;22247;48.586;13.492;2022-10-31T05:50:24;60.25;;;3.20;;
36211;SDS011;22247;48.586;13.492;2022-10-31T05:55:28;56.80;;;2.00;;
36211;SDS011;22247;48.586;13.492;2022-10-31T05:57:54;53.95;;;2.78;;
36211;SDS011;22247;48.586;13.492;2022-10-31T06:00:20;15.80;;;1.50;;
36211;SDS011;22247;48.586;13.492;2022-10-31T06:02:47;15.80;;;1.35;;
36211;SDS011;22247;48.586;13.492;2022-10-31T06:05:15;11.07;;;1.67;;
36211;SDS011;22247;48.586;13.492;2022-10-31T06:07:44;28.48;;;2.22;;
36211;SDS011;22247;48.586;13.492;2022-10-31T06:10:09;75.97;;;4.57;;
36211;SDS011;22247;48.586;13.492;2022-10-31T06:12:35;42.65;;;4.50;;
36211;SDS011;22247;48.586;13.492;2022-10-31T06:15:05;45.60;;;3.80;;
36211;SDS011;22247;48.586;13.492;2022-10-31T06:17:32;53.85;;;3.85;;
36211;SDS011;22247;48.586;13.492;2022-10-31T06:19:59;60.88;;;4.53;;
36211;SDS011;22247;48.586;13.492;2022-10-31T06:22:25;26.88;;;3.13;;
36211;SDS011;22247;48.586;13.492;2022-10-31T06:24:51;124.13;;;6.13;;
36211;SDS011;22247;48.586;13.492;2022-10-31T06:27:17;82.40;;;5.28;;
36211;SDS011;22247;48.586;13.492;2022-10-31T06:29:43;101.85;;;6.47;;
36211;SDS011;22247;48.586;13.492;2022-10-31T06:32:12;134.85;;;7.93;;
36211;SDS011;22247;48.586;13.492;2022-10-31T06:34:38;211.55;;;10.85;;
36211;SDS011;22247;48.586;13.492;2022-10-31T06:37:08;232.32;;;13.85;;
36211;SDS011;22247;48.586;13.492;2022-10-31T06:39:37;136.95;;;6.63;;
36211;SDS011;22247;48.586;13.492;2022-10-31T06:42:05;179.68;;;8.55;;
36211;SDS011;22247;48.586;13.492;2022-10-31T06:44:33;53.17;;;3.53;;
36211;SDS011;22247;48.586;13.492;2022-10-31T06:46:59;101.47;;;6.60;;
36211;SDS011;22247;48.586;13.492;2022-10-31T06:49:25;104.90;;;5.07;;
36211;SDS011;22247;48.586;13.492;2022-10-31T06:51:55;134.40;;;5.57;;
36211;SDS011;22247;48.586;13.492;2022-10-31T06:54:21;96.70;;;5.70;;
36211;SDS011;22247;48.586;13.492;2022-10-31T06:56:47;117.30;;;5.43;;
36211;SDS011;22247;48.586;13.492;2022-10-31T06:59:15;189.13;;;11.15;;
36211;SDS011;22247;48.586;13.492;2022-10-31T07:01:41;43.10;;;2.95;;
36211;SDS011;22247;48.586;13.492;2022-10-31T07:04:09;174.10;;;8.35;;
36211;SDS011;22247;48.586;13.492;2022-10-31T07:06:35;158.75;;;8.43;;
36211;SDS011;22247;48.586;13.492;2022-10-31T07:09:01;277.50;;;12.82;;
36211;SDS011;22247;48.586;13.492;2022-10-31T07:11:30;156.57;;;6.80;;
36211;SDS011;22247;48.586;13.492;2022-10-31T07:13:55;125.32;;;6.05;;
36211;SDS011;22247;48.586;13.492;2022-10-31T07:16:24;28.65;;;2.40;;
36211;SDS011;22247;48.586;13.492;2022-10-31T07:18:52;89.85;;;6.43;;
36211;SDS011;22247;48.586;13.492;2022-10-31T07:21:18;297.70;;;14.07;;
36211;SDS011;22247;48.586;13.492;2022-10-31T07:23:46;253.32;;;13.05;;
36211;SDS011;22247;48.586;13.492;2022-10-31T07:26:12;148.60;;;6.72;;
36211;SDS011;22247;48.586;13.492;2022-10-31T07:28:38;205.40;;;8.18;;
36211;SDS011;22247;48.586;13.492;2022-10-31T07:31:04;76.28;;;4.35;;
36211;SDS011;22247;48.586;13.492;2022-10-31T07:33:33;124.25;;;6.97;;
36211;SDS011;22247;48.586;13.492;2022-10-31T07:35:59;136.75;;;7.10;;
36211;SDS011;22247;48.586;13.492;2022-10-31T07:38:27;192.85;;;10.13;;
36211;SDS011;22247;48.586;13.492;2022-10-31T07:40:53;203.55;;;8.38;;
36211;SDS011;22247;48.586;13.492;2022-10-31T07:43:21;48.58;;;3.75;;
36211;SDS011;22247;48.586;13.492;2022-10-31T07:45:51;59.05;;;3.85;;
36211;SDS011;22247;48.586;13.492;2022-10-31T07:48:20;219.65;;;11.85;;
36211;SDS011;22247;48.586;13.492;2022-10-31T07:50:46;159.50;;;6.32;;
36211;SDS011;22247;48.586;13.492;2022-10-31T07:53:12;95.60;;;2.97;;
36211;SDS011;22247;48.586;13.492;2022-10-31T07:55:41;89.15;;;3.55;;
36211;SDS011;22247;48.586;13.492;2022-10-31T07:58:11;101.13;;;5.60;;
36211;SDS011;22247;48.586;13.492;2022-10-31T08:00:39;121.03;;;4.65;;
36211;SDS011;22247;48.586;13.492;2022-10-31T08:03:13;137.30;;;5.38;;
36211;SDS011;22247;48.586;13.492;2022-10-31T08:05:44;118.72;;;5.15;;
36211;SDS011;22247;48.586;13.492;2022-10-31T08:08:11;166.43;;;6.55;;
36211;SDS011;22247;48.586;13.492;2022-10-31T08:10:40;101.70;;;4.32;;
36211;SDS011;22247;48.586;13.492;2022-10-31T08:13:07;109.60;;;4.30;;
36211;SDS011;22247;48.586;13.492;2022-10-31T08:15:38;150.60;;;7.63;;
36211;SDS011;22247;48.586;13.492;2022-10-31T08:18:10;76.35;;;3.95;;
36211;SDS011;22247;48.586;13.492;2022-10-31T08:20:38;61.15;;;2.45;;
36211;SDS011;22247;48.586;13.492;2022-10-31T08:23:04;112.13;;;4.28;;
36211;SDS011;22247;48.586;13.492;2022-10-31T08:25:31;117.70;;;7.07;;
36211;SDS011;22247;48.586;13.492;2022-10-31T08:27:58;141.07;;;5.85;;
36211;SDS011;22247;48.586;13.492;2022-10-31T08:30:26;97.53;;;4.70;;
36211;SDS011;22247;48.586;13.492;2022-10-31T08:33:11;70.95;;;2.80;;
36211;SDS011;22247;48.586;13.492;2022-10-31T08:35:41;87.20;;;4.15;;
36211;SDS011;22247;48.586;13.492;2022-10-31T08:38:10;70.22;;;3.42;;
36211;SDS011;22247;48.586;13.492;2022-10-31T08:40:37;122.30;;;6.07;;
36211;SDS011;22247;48.586;13.492;2022-10-31T08:43:06;120.78;;;4.20;;
36211;SDS011;22247;48.586;13.492;2022-10-31T08:45:38;43.45;;;2.58;;
36211;SDS011;22247;48.586;13.492;2022-10-31T08:48:04;100.60;;;4.68;;
36211;SDS011;22247;48.586;13.492;2022-10-31T08:50:32;35.03;;;2.22;;
36211;SDS011;22247;48.586;13.492;2022-10-31T08:53:06;7.38;;;1.40;;
36211;SDS011;22247;48.586;13.492;2022-10-31T08:55:35;4.80;;;1.63;;
36211;SDS011;22247;48.586;13.492;2022-10-31T08:58:02;4.53;;;1.80;;
36211;SDS011;22247;48.586;13.492;2022-10-31T09:00:31;2.33;;;1.30;;
36211;SDS011;22247;48.586;13.492;2022-10-31T09:02:58;8.75;;;1.98;;
36211;SDS011;22247;48.586;13.492;2022-10-31T09:05:25;5.38;;;1.33;;
36211;SDS011;22247;48.586;13.492;2022-10-31T09:07:54;2.67;;;1.40;;
36211;SDS011;22247;48.586;13.492;2022-10-31T09:10:23;10.30;;;2.70;;
36211;SDS011;22247;48.586;13.492;2022-10-31T09:12:58;4.85;;;2.15;;
36211;SDS011;22247;48.586;13.492;2022-10-31T09:15:25;4.85;;;2.00;;
36211;SDS011;22247;48.586;13.492;2022-10-31T09:17:52;4.78;;;1.85;;
36211;SDS011;22247;48.586;13.492;2022-10-31T09:20:18;6.47;;;2.17;;
36211;SDS011;22247;48.586;13.492;2022-10-31T09:22:47;6.00;;;2.10;;
36211;SDS011;22247;48.586;13.492;2022-10-31T09:25:12;8.00;;;3.63;;
36211;SDS011;22247;48.586;13.492;2022-10-31T09:27:38;9.07;;;2.38;;
36211;SDS011;22247;48.586;13.492;2022-10-31T09:30:07;3.83;;;2.45;;
36211;SDS011;22247;48.586;13.492;2022-10-31T09:32:33;5.43;;;2.42;;
36211;SDS011;22247;48.586;13.492;2022-10-31T09:35:02;4.65;;;2.55;;
36211;SDS011;22247;48.586;13.492;2022-10-31T09:37:30;6.75;;;3.35;;
36211;SDS011;22247;48.586;13.492;2022-10-31T09:39:57;8.65;;;3.97;;
36211;SDS011;22247;48.586;13.492;2022-10-31T09:44:53;7.45;;;2.97;;
36211;SDS011;22247;48.586;13.492;2022-10-31T09:47:44;10.35;;;3.47;;
36211;SDS011;22247;48.586;13.492;2022-10-31T09:53:05;9.55;;;3.70;;
36211;SDS011;22247;48.586;13.492;2022-10-31T09:55:44;10.95;;;4.60;;
36211;SDS011;22247;48.586;13.492;2022-10-31T09:58:18;7.65;;;4.03;;
36211;SDS011;22247;48.586;13.492;2022-10-31T10:00:47;6.90;;;4.93;;
36211;SDS011;22247;48.586;13.492;2022-10-31T10:06:04;7.82;;;4.10;;
36211;SDS011;22247;48.586;13.492;2022-10-31T10:08:41;10.32;;;5.22;;
36211;SDS011;22247;48.586;13.492;2022-10-31T10:13:40;9.85;;;4.72;;
36211;SDS011;22247;48.586;13.492;2022-10-31T10:24:48;7.90;;;3.88;;
36211;SDS011;22247;48.586;13.492;2022-10-31T10:29:36;7.60;;;3.95;;
36211;SDS011;22247;48.586;13.492;2022-10-31T10:32:28;6.18;;;2.85;;
36211;SDS011;22247;48.586;13.492;2022-10-31T10:35:04;10.25;;;3.38;;
36211;SDS011;22247;48.586;13.492;2022-10-31T10:37:40;9.50;;;2.85;;
36211;SDS011;22247;48.586;13.492;2022-10-31T10:48:50;11.73;;;4.40;;
36211;SDS011;22247;48.586;13.492;2022-10-31T10:51:36;12.27;;;4.38;;
36211;SDS011;22247;48.586;13.492;2022-10-31T10:59:30;9.95;;;4.57;;
36211;SDS011;22247;48.586;13.492;2022-10-31T11:01:57;9.38;;;4.10;;
36211;SDS011;22247;48.586;13.492;2022-10-31T11:04:34;6.65;;;3.95;;
36211;SDS011;22247;48.586;13.492;2022-10-31T11:07:02;10.63;;;3.78;;
36211;SDS011;22247;48.586;13.492;2022-10-31T11:09:30;8.50;;;3.30;;
36211;SDS011;22247;48.586;13.492;2022-10-31T11:11:56;8.55;;;4.18;;
36211;SDS011;22247;48.586;13.492;2022-10-31T11:14:26;12.63;;;4.72;;
36211;SDS011;22247;48.586;13.492;2022-10-31T11:22:38;23.55;;;5.38;;
36211;SDS011;22247;48.586;13.492;2022-10-31T11:25:25;15.43;;;5.95;;
36211;SDS011;22247;48.586;13.492;2022-10-31T11:30:35;9.55;;;6.13;;
36211;SDS011;22247;48.586;13.492;2022-10-31T11:35:48;11.60;;;6.22;;
36211;SDS011;22247;48.586;13.492;2022-10-31T11:38:17;11.88;;;5.25;;
36211;SDS011;22247;48.586;13.492;2022-10-31T11:40:51;11.65;;;5.05;;
36211;SDS011;22247;48.586;13.492;2022-10-31T11:43:25;13.10;;;5.85;;
36211;SDS011;22247;48.586;13.492;2022-10-31T11:45:54;10.90;;;4.93;;
36211;SDS011;22247;48.586;13.492;2022-10-31T11:48:22;10.80;;;5.32;;
36211;SDS011;22247;48.586;13.492;2022-10-31T11:50:51;11.27;;;5.20;;
36211;SDS011;22247;48.586;13.492;2022-10-31T11:53:26;10.57;;;5.15;;
36211;SDS011;22247;48.586;13.492;2022-10-31T11:56:12;16.85;;;4.13;;
36211;SDS011;22247;48.586;13.492;2022-10-31T11:58:43;15.73;;;5.22;;
36211;SDS011;22247;48.586;13.492;2022-10-31T12:01:21;10.75;;;6.43;;
36211;SDS011;22247;48.586;13.492;2022-10-31T12:06:38;9.98;;;4.78;;
36211;SDS011;22247;48.586;13.492;2022-10-31T12:09:20;17.63;;;6.78;;
36211;SDS011;22247;48.586;13.492;2022-10-31T12:17:14;16.17;;;4.30;;
36211;SDS011;22247;48.586;13.492;2022-10-31T12:22:13;11.57;;;4.72;;
36211;SDS011;22247;48.586;13.492;2022-10-31T12:25:14;14.02;;;6.47;;
36211;SDS011;22247;48.586;13.492;2022-10-31T12:36:42;10.75;;;2.90;;
36211;SDS011;22247;48.586;13.492;2022-10-31T12:52:17;8.68;;;3.05;;
36211;SDS011;22247;48.586;13.492;2022-10-31T13:00:18;10.48;;;2.33;;
36211;SDS011;22247;48.586;13.492;2022-10-31T13:08:02;10.45;;;2.75;;
36211;SDS011;22247;48.586;13.492;2022-10-31T13:13:06;5.32;;;1.63;;
36211;SDS011;22247;48.586;13.492;2022-10-31T13:15:53;6.97;;;1.90;;
36211;SDS011;22247;48.586;13.492;2022-10-31T13:18:29;7.55;;;2.50;;
36211;SDS011;22247;48.586;13.492;2022-10-31T13:21:02;8.00;;;1.95;;
36211;SDS011;22247;48.586;13.492;2022-10-31T13:23:33;5.68;;;1.73;;
36211;SDS011;22247;48.586;13.492;2022-10-31T13:26:12;19.08;;;4.18;;
36211;SDS011;22247;48.586;13.492;2022-10-31T13:31:15;6.82;;;1.85;;
36211;SDS011;22247;48.586;13.492;2022-10-31T13:33:54;9.77;;;1.88;;
36211;SDS011;22247;48.586;13.492;2022-10-31T13:36:31;12.27;;;2.40;;
36211;SDS011;22247;48.586;13.492;2022-10-31T13:39:25;6.38;;;1.67;;
36211;SDS011;22247;48.586;13.492;2022-10-31T13:42:25;7.20;;;2.28;;
36211;SDS011;22247;48.586;13.492;2022-10-31T13:45:08;7.22;;;2.50;;
36211;SDS011;22247;48.586;13.492;2022-10-31T13:47:41;7.68;;;2.60;;
36211;SDS011;22247;48.586;13.492;2022-10-31T13:52:44;6.90;;;1.75;;
36211;SDS011;22247;48.586;13.492;2022-10-31T13:58:19;6.75;;;1.60;;
36211;SDS011;22247;48.586;13.492;2022-10-31T14:01:12;7.00;;;1.90;;
36211;SDS011;22247;48.586;13.492;2022-10-31T14:03:55;10.60;;;2.60;;
36211;SDS011;22247;48.586;13.492;2022-10-31T14:06:34;5.95;;;1.40;;
36211;SDS011;22247;48.586;13.492;2022-10-31T14:11:51;7.07;;;1.58;;
36211;SDS011;22247;48.586;13.492;2022-10-31T14:14:18;8.48;;;2.95;;
36211;SDS011;22247;48.586;13.492;2022-10-31T14:16:53;8.40;;;2.42;;
36211;SDS011;22247;48.586;13.492;2022-10-31T14:19:25;5.38;;;2.90;;
36211;SDS011;22247;48.586;13.492;2022-10-31T14:21:52;6.82;;;2.63;;
36211;SDS011;22247;48.586;13.492;2022-10-31T14:26:56;9.70;;;3.42;;
36211;SDS011;22247;48.586;13.492;2022-10-31T14:31:55;6.75;;;3.90;;
36211;SDS011;22247;48.586;13.492;2022-10-31T14:34:34;9.40;;;3.33;;
36211;SDS011;22247;48.586;13.492;2022-10-31T14:50:24;7.72;;;4.05;;
36211;SDS011;22247;48.586;13.492;2022-10-31T14:55:49;10.67;;;4.33;;
36211;SDS011;22247;48.586;13.492;2022-10-31T14:58:19;11.63;;;4.60;;
36211;SDS011;22247;48.586;13.492;2022-10-31T15:05:52;9.32;;;4.90;;
36211;SDS011;22247;48.586;13.492;2022-10-31T15:13:46;10.68;;;4.63;;
36211;SDS011;22247;48.586;13.492;2022-10-31T15:16:24;11.82;;;4.82;;
36211;SDS011;22247;48.586;13.492;2022-10-31T15:18:59;14.38;;;5.82;;
36211;SDS011;22247;48.586;13.492;2022-10-31T15:21:29;12.38;;;5.82;;
36211;SDS011;22247;48.586;13.492;2022-10-31T15:23:58;15.88;;;6.00;;
36211;SDS011;22247;48.586;13.492;2022-10-31T15:26:31;11.50;;;5.97;;
36211;SDS011;22247;48.586;13.492;2022-10-31T15:29:05;9.45;;;6.20;;
36211;SDS011;22247;48.586;13.492;2022-10-31T15:31:37;11.10;;;6.55;;
36211;SDS011;22247;48.586;13.492;2022-10-31T15:34:06;10.32;;;7.00;;
36211;SDS011;22247;48.586;13.492;2022-10-31T15:36:42;14.88;;;6.63;;
36211;SDS011;22247;48.586;13.492;2022-10-31T15:39:10;12.50;;;8.45;;
36211;SDS011;22247;48.586;13.492;2022-10-31T15:41:44;10.82;;;6.60;;
36211;SDS011;22247;48.586;13.492;2022-10-31T15:44:25;13.95;;;7.03;;
36211;SDS011;22247;48.586;13.492;2022-10-31T15:46:52;9.48;;;5.25;;
36211;SDS011;22247;48.586;13.492;2022-10-31T15:49:27;10.25;;;5.85;;
36211;SDS011;22247;48.586;13.492;2022-10-31T15:54:33;9.23;;;4.63;;
36211;SDS011;22247;48.586;13.492;2022-10-31T15:56:59;12.63;;;5.90;;
36211;SDS011;22247;48.586;13.492;2022-10-31T15:59:25;10.90;;;6.10;;
36211;SDS011;22247;48.586;13.492;2022-10-31T16:01:55;10.60;;;6.55;;
36211;SDS011;22247;48.586;13.492;2022-10-31T16:04:35;10.07;;;7.45;;
36211;SDS011;22247;48.586;13.492;2022-10-31T16:07:02;10.23;;;6.63;;
36211;SDS011;22247;48.586;13.492;2022-10-31T16:09:47;11.52;;;6.15;;
36211;SDS011;22247;48.586;13.492;2022-10-31T16:12:21;10.57;;;4.82;;
36211;SDS011;22247;48.586;13.492;2022-10-31T16:14:51;10.85;;;5.53;;
36211;SDS011;22247;48.586;13.492;2022-10-31T16:17:22;11.00;;;5.88;;
36211;SDS011;22247;48.586;13.492;2022-10-31T16:22:35;12.68;;;7.38;;
36211;SDS011;22247;48.586;13.492;2022-10-31T16:27:30;10.85;;;5.72;;
36211;SDS011;22247;48.586;13.492;2022-10-31T16:30:00;13.95;;;6.63;;
36211;SDS011;22247;48.586;13.492;2022-10-31T16:32:35;13.25;;;5.78;;
36211;SDS011;22247;48.586;13.492;2022-10-31T16:35:26;10.75;;;6.15;;
36211;SDS011;22247;48.586;13.492;2022-10-31T16:37:59;11.73;;;5.65;;
36211;SDS011;22247;48.586;13.492;2022-10-31T16:40:25;9.70;;;5.40;;
36211;SDS011;22247;48.586;13.492;2022-10-31T16:42:56;14.77;;;6.65;;
36211;SDS011;22247;48.586;13.492;2022-10-31T16:45:29;10.43;;;5.97;;
36211;SDS011;22247;48.586;13.492;2022-10-31T16:48:05;11.75;;;5.45;;
36211;SDS011;22247;48.586;13.492;2022-10-31T16:50:35;16.90;;;6.72;;
36211;SDS011;22247;48.586;13.492;2022-10-31T16:53:03;15.23;;;6.88;;
36211;SDS011;22247;48.586;13.492;2022-10-31T16:55:29;16.38;;;6.38;;
36211;SDS011;22247;48.586;13.492;2022-10-31T16:57:57;9.88;;;4.97;;
36211;SDS011;22247;48.586;13.492;2022-10-31T17:00:25;12.85;;;5.88;;
36211;SDS011;22247;48.586;13.492;2022-10-31T17:02:55;10.50;;;5.40;;
36211;SDS011;22247;48.586;13.492;2022-10-31T17:05:26;9.05;;;5.43;;
36211;SDS011;22247;48.586;13.492;2022-10-31T17:07:55;11.52;;;6.03;;
36211;SDS011;22247;48.586;13.492;2022-10-31T17:10:21;10.90;;;4.93;;
36211;SDS011;22247;48.586;13.492;2022-10-31T17:12:47;11.38;;;6.43;;
36211;SDS011;22247;48.586;13.492;2022-10-31T17:15:15;14.10;;;6.28;;
36211;SDS011;22247;48.586;13.492;2022-10-31T17:17:44;9.90;;;5.22;;
36211;SDS011;22247;48.586;13.492;2022-10-31T17:20:18;13.10;;;5.85;;
36211;SDS011;22247;48.586;13.492;2022-10-31T17:22:46;18.60;;;7.30;;
36211;SDS011;22247;48.586;13.492;2022-10-31T17:25:19;10.15;;;5.25;;
36211;SDS011;22247;48.586;13.492;2022-10-31T17:27:46;12.48;;;6.75;;
36211;SDS011;22247;48.586;13.492;2022-10-31T17:30:13;15.15;;;6.70;;
36211;SDS011;22247;48.586;13.492;2022-10-31T17:32:39;7.75;;;5.25;;
36211;SDS011;22247;48.586;13.492;2022-10-31T17:35:06;10.32;;;5.68;;
36211;SDS011;22247;48.586;13.492;2022-10-31T17:37:33;11.55;;;5.95;;
36211;SDS011;22247;48.586;13.492;2022-10-31T17:40:02;12.45;;;7.05;;
36211;SDS011;22247;48.586;13.492;2022-10-31T17:42:28;15.88;;;6.07;;
36211;SDS011;22247;48.586;13.492;2022-10-31T17:44:54;10.68;;;6.10;;